Time;durP1;ratioP1;P1;durP2;ratioP2;P2;SDS_P1;SDS_P2;PMS_P1;PMS_P2;Temp;Humidity;BMP_temperature;BMP_pressure;BME280_temperature;BME280_humidity;BME280_pressure;Samples;Min_cycle;Max_cycle;Signal;HPM_P1;HPM_P2
2021/07/17 00:00:36;;;;;;;20.25;3.95;;;20.80;82.60;;;;;;5019796;28;20401;-69
2021/07/17 00:03:03;;;;;;;18.27;3.70;;;20.70;82.70;;;;;;5016093;28;20030;-69
2021/07/17 00:05:28;;;;;;;22.58;3.97;;;20.70;82.90;;;;;;5012598;28;20168;-69
2021/07/17 00:07:54;;;;;;;19.10;4.13;;;20.80;83.10;;;;;;5017842;28;20113;-69
2021/07/17 00:10:31;;;;;;;23.85;4.57;;;20.70;83.10;;;;;;5031094;28;20037;-69
2021/07/17 00:12:59;;;;;;;18.83;4.05;;;20.70;83.30;;;;;;5024817;28;20032;-68
2021/07/17 00:15:25;;;;;;;19.65;3.50;;;20.70;83.40;;;;;;5027848;28;20037;-68
2021/07/17 00:17:51;;;;;;;19.77;4.28;;;20.70;83.60;;;;;;5033083;28;20052;-69
2021/07/17 00:20:18;;;;;;;18.23;3.50;;;20.60;83.70;;;;;;5039661;28;20038;-68
2021/07/17 00:22:44;;;;;;;16.50;3.67;;;20.70;83.90;;;;;;5028413;28;20413;-68
2021/07/17 00:25:13;;;;;;;21.92;3.70;;;20.60;84.00;;;;;;5030726;28;20091;-68
2021/07/17 00:27:39;;;;;;;21.30;3.75;;;20.60;84.20;;;;;;5014403;28;20519;-69
2021/07/17 00:30:06;;;;;;;17.88;3.50;;;20.60;84.30;;;;;;5027336;28;20033;-69
2021/07/17 00:32:32;;;;;;;23.10;3.63;;;20.60;84.50;;;;;;5012212;28;20034;-69
2021/07/17 00:34:58;;;;;;;23.15;3.67;;;20.60;84.70;;;;;;5027509;28;20095;-69
2021/07/17 00:37:23;;;;;;;17.60;3.45;;;20.60;84.80;;;;;;5025123;28;20105;-69
2021/07/17 00:39:49;;;;;;;18.42;3.42;;;20.50;84.90;;;;;;5024769;28;20033;-69
2021/07/17 00:42:15;;;;;;;18.25;3.65;;;20.50;85.00;;;;;;5016503;28;20045;-69
2021/07/17 00:44:40;;;;;;;16.95;3.85;;;20.50;85.00;;;;;;5027967;28;20038;-69
2021/07/17 00:47:07;;;;;;;16.90;3.90;;;20.50;85.10;;;;;;5012763;28;20055;-69
2021/07/17 00:49:33;;;;;;;19.20;3.58;;;20.50;85.20;;;;;;5013310;28;20103;-69
2021/07/17 00:51:59;;;;;;;21.30;2.95;;;20.50;85.30;;;;;;5012766;28;20486;-69
2021/07/17 00:54:26;;;;;;;19.17;3.30;;;20.50;85.40;;;;;;5013400;28;20030;-69
2021/07/17 00:56:53;;;;;;;19.13;3.28;;;20.50;85.40;;;;;;5025292;28;20037;-68
2021/07/17 00:59:24;;;;;;;21.85;4.05;;;20.50;86.10;;;;;;5013504;28;20038;-68
2021/07/17 01:01:53;;;;;;;23.20;3.50;;;20.50;85.40;;;;;;5012864;28;20030;-69
2021/07/17 01:04:21;;;;;;;10.15;3.33;;;20.50;86.00;;;;;;5012808;28;20030;-69
2021/07/17 01:06:47;;;;;;;17.23;3.13;;;20.40;85.30;;;;;;5013337;28;20177;-69
2021/07/17 01:09:15;;;;;;;18.85;3.10;;;20.40;85.30;;;;;;5019788;28;20069;-68
2021/07/17 01:11:41;;;;;;;28.30;3.45;;;20.40;85.40;;;;;;5021116;28;20025;-68
2021/07/17 01:14:07;;;;;;;17.33;3.40;;;20.40;85.50;;;;;;5021838;28;20037;-69
2021/07/17 01:16:33;;;;;;;16.80;3.55;;;20.40;85.50;;;;;;5031641;28;20025;-68
2021/07/17 01:18:59;;;;;;;15.35;3.25;;;20.40;85.50;;;;;;5044167;28;20047;-68
2021/07/17 01:21:27;;;;;;;15.38;3.17;;;20.40;85.60;;;;;;5043513;28;20119;-69
2021/07/17 01:23:53;;;;;;;15.57;3.35;;;20.30;85.70;;;;;;5031359;28;20079;-69
2021/07/17 01:26:18;;;;;;;17.75;3.15;;;20.30;85.70;;;;;;5022071;28;20030;-68
2021/07/17 01:28:44;;;;;;;22.27;4.72;;;20.40;85.90;;;;;;5023754;28;20444;-66
2021/07/17 01:31:10;;;;;;;23.17;3.70;;;20.30;86.00;;;;;;5022085;28;20034;-66
2021/07/17 01:33:36;;;;;;;18.27;3.97;;;20.30;86.10;;;;;;5014769;28;20104;-66
2021/07/17 01:36:02;;;;;;;21.17;4.13;;;20.30;86.20;;;;;;5012738;28;20033;-66
2021/07/17 01:38:28;;;;;;;22.35;3.97;;;20.30;86.30;;;;;;5014770;28;20042;-66
2021/07/17 01:40:54;;;;;;;16.73;3.95;;;20.20;86.40;;;;;;5030863;28;20037;-66
2021/07/17 01:43:20;;;;;;;17.20;4.10;;;20.20;86.40;;;;;;5017050;28;20037;-66
2021/07/17 01:45:46;;;;;;;16.33;3.22;;;20.20;86.50;;;;;;5023894;28;20386;-66
2021/07/17 01:48:13;;;;;;;18.75;3.70;;;20.20;86.50;;;;;;5012751;28;20029;-66
2021/07/17 01:50:40;;;;;;;21.15;4.00;;;20.20;86.50;;;;;;5020256;28;20029;-66
2021/07/17 01:53:08;;;;;;;23.08;4.00;;;20.20;86.60;;;;;;5030125;28;20028;-66
2021/07/17 01:55:34;;;;;;;20.77;3.35;;;20.20;86.60;;;;;;5035660;28;20021;-66
2021/07/17 01:58:00;;;;;;;14.38;4.00;;;20.10;86.50;;;;;;5011882;28;20394;-66
2021/07/17 02:00:26;;;;;;;15.93;3.17;;;20.20;86.60;;;;;;5020025;28;20032;-66
2021/07/17 02:02:53;;;;;;;21.38;3.42;;;20.20;86.60;;;;;;5027652;28;20033;-66
2021/07/17 02:05:20;;;;;;;16.52;3.33;;;20.20;86.60;;;;;;5015059;28;20025;-66
2021/07/17 02:07:46;;;;;;;20.38;3.30;;;20.20;86.60;;;;;;5013217;28;20052;-66
2021/07/17 02:10:18;;;;;;;10.55;2.75;;;20.10;86.60;;;;;;5030694;28;20038;-66
2021/07/17 02:13:07;;;;;;;18.50;3.10;;;20.20;86.70;;;;;;5025010;28;20025;-66
2021/07/17 02:15:47;;;;;;;23.45;4.25;;;20.10;86.60;;;;;;5025825;28;20030;-66
2021/07/17 02:18:14;;;;;;;14.57;3.38;;;20.10;86.60;;;;;;5023296;28;20133;-66
2021/07/17 02:20:40;;;;;;;16.73;2.90;;;20.10;86.60;;;;;;5040920;28;20473;-66
2021/07/17 02:23:07;;;;;;;15.82;2.70;;;20.10;86.80;;;;;;5016684;28;20041;-66
2021/07/17 02:25:33;;;;;;;18.60;3.55;;;20.10;87.00;;;;;;5023755;28;20030;-66
2021/07/17 02:27:59;;;;;;;17.73;3.97;;;20.00;87.20;;;;;;5020464;28;20099;-66
2021/07/17 02:30:25;;;;;;;23.75;3.00;;;20.00;87.20;;;;;;5028809;28;20087;-66
2021/07/17 02:32:50;;;;;;;15.88;3.60;;;20.00;87.30;;;;;;5022124;28;20041;-66
2021/07/17 02:35:16;;;;;;;17.75;3.40;;;20.00;87.40;;;;;;5044056;28;20087;-66
2021/07/17 02:37:42;;;;;;;13.85;3.42;;;20.00;87.40;;;;;;5033357;28;20485;-66
2021/07/17 02:40:09;;;;;;;27.20;3.60;;;20.00;87.60;;;;;;5015820;28;20481;-66
2021/07/17 02:42:35;;;;;;;15.45;3.85;;;20.00;87.60;;;;;;5027578;28;20079;-66
2021/07/17 02:45:06;;;;;;;14.25;3.20;;;20.00;87.70;;;;;;5018154;28;20029;-66
2021/07/17 02:47:32;;;;;;;15.32;3.10;;;20.00;87.80;;;;;;5016872;28;20558;-66
2021/07/17 02:49:58;;;;;;;15.68;2.65;;;20.00;87.70;;;;;;5033327;28;20037;-66
2021/07/17 02:52:24;;;;;;;19.35;3.33;;;19.90;87.60;;;;;;5022406;28;20488;-66
2021/07/17 02:54:49;;;;;;;15.85;3.90;;;19.90;87.70;;;;;;5026205;28;20032;-66
2021/07/17 02:57:15;;;;;;;14.90;3.33;;;19.90;87.80;;;;;;5023055;28;20097;-66
2021/07/17 02:59:40;;;;;;;13.00;3.17;;;19.90;87.90;;;;;;5019727;28;20022;-66
2021/07/17 03:02:06;;;;;;;17.08;2.88;;;19.90;87.90;;;;;;5014667;28;20052;-66
2021/07/17 03:04:32;;;;;;;10.57;2.88;;;19.90;87.90;;;;;;5030272;28;20033;-66
2021/07/17 03:06:57;;;;;;;21.30;3.42;;;19.90;87.80;;;;;;5037743;28;20060;-66
2021/07/17 03:09:23;;;;;;;20.95;3.30;;;19.90;87.80;;;;;;5016640;28;20140;-66
2021/07/17 03:11:48;;;;;;;21.42;2.80;;;19.90;88.00;;;;;;5014049;28;20034;-66
2021/07/17 03:14:14;;;;;;;17.92;2.88;;;19.90;87.90;;;;;;5032525;28;20036;-66
2021/07/17 03:16:40;;;;;;;20.13;3.38;;;19.90;88.10;;;;;;5035661;28;20036;-65
2021/07/17 03:19:07;;;;;;;17.67;2.80;;;19.80;88.00;;;;;;5030869;28;20033;-66
2021/07/17 03:21:32;;;;;;;16.52;3.97;;;19.80;88.00;;;;;;5034260;28;20534;-66
2021/07/17 03:23:58;;;;;;;12.65;2.60;;;19.90;88.10;;;;;;5029381;28;20033;-66
2021/07/17 03:26:24;;;;;;;14.63;3.28;;;19.80;88.20;;;;;;5024820;28;20471;-66
2021/07/17 03:28:50;;;;;;;12.25;2.83;;;19.80;88.30;;;;;;5033753;28;20567;-66
2021/07/17 03:31:16;;;;;;;16.15;3.53;;;19.80;88.30;;;;;;5033922;28;20473;-66
2021/07/17 03:33:42;;;;;;;13.60;2.70;;;19.80;88.30;;;;;;5015455;28;20418;-66
2021/07/17 03:36:07;;;;;;;19.42;2.95;;;19.80;88.30;;;;;;5013738;28;20034;-66
2021/07/17 03:38:33;;;;;;;16.10;3.45;;;19.80;88.20;;;;;;5014960;28;20030;-66
2021/07/17 03:40:59;;;;;;;18.00;3.38;;;19.80;88.20;;;;;;5026955;28;20030;-66
2021/07/17 03:43:25;;;;;;;12.73;2.65;;;19.80;88.30;;;;;;5028640;28;20064;-66
2021/07/17 03:45:50;;;;;;;15.23;3.00;;;19.80;88.40;;;;;;5025719;28;20056;-66
2021/07/17 03:48:16;;;;;;;22.25;3.10;;;19.70;88.40;;;;;;5018057;28;20128;-66
2021/07/17 03:50:41;;;;;;;18.83;2.90;;;19.70;88.80;;;;;;5035360;28;20459;-66
2021/07/17 03:53:07;;;;;;;20.05;3.30;;;19.80;88.50;;;;;;5041692;28;20029;-66
2021/07/17 03:55:33;;;;;;;16.05;3.13;;;19.80;88.50;;;;;;5028376;28;20029;-66
2021/07/17 03:57:59;;;;;;;17.13;3.58;;;19.80;88.60;;;;;;5013998;28;20034;-66
2021/07/17 04:00:24;;;;;;;10.43;2.78;;;19.70;88.70;;;;;;5036785;28;20025;-66
2021/07/17 04:02:50;;;;;;;16.65;3.15;;;19.80;88.70;;;;;;5031229;28;20539;-66
2021/07/17 04:05:17;;;;;;;14.00;2.95;;;19.80;88.80;;;;;;5031618;28;20033;-66
2021/07/17 04:07:43;;;;;;;16.58;2.70;;;19.80;88.90;;;;;;5033712;28;20385;-66
2021/07/17 04:10:10;;;;;;;13.10;2.80;;;19.70;88.90;;;;;;5022659;28;20068;-66
2021/07/17 04:12:36;;;;;;;15.85;2.65;;;19.70;88.90;;;;;;5027442;28;20113;-66
2021/07/17 04:15:03;;;;;;;18.50;2.92;;;19.70;89.00;;;;;;5023180;28;20121;-66
2021/07/17 04:17:29;;;;;;;13.52;2.72;;;19.70;89.10;;;;;;5028093;28;20049;-66
2021/07/17 04:19:55;;;;;;;22.50;3.00;;;19.70;89.00;;;;;;5013930;28;20041;-66
2021/07/17 04:22:20;;;;;;;10.60;3.58;;;19.70;89.20;;;;;;5015032;28;20025;-66
2021/07/17 04:24:46;;;;;;;13.93;2.83;;;19.70;89.30;;;;;;5024769;28;20116;-66
2021/07/17 04:27:12;;;;;;;15.90;3.08;;;19.70;89.40;;;;;;5027264;28;20026;-66
2021/07/17 04:29:37;;;;;;;17.42;3.08;;;19.70;89.40;;;;;;5022919;28;20124;-66
2021/07/17 04:32:03;;;;;;;9.27;2.80;;;19.70;89.30;;;;;;5022202;28;20028;-66
2021/07/17 04:34:29;;;;;;;16.20;3.10;;;19.70;89.40;;;;;;5027853;28;20029;-66
2021/07/17 04:36:55;;;;;;;16.50;3.33;;;19.70;89.40;;;;;;5013931;28;20084;-66
2021/07/17 04:39:22;;;;;;;13.77;2.83;;;19.70;89.60;;;;;;5013240;28;20465;-66
2021/07/17 04:41:47;;;;;;;14.10;2.53;;;19.70;89.50;;;;;;5024213;28;20036;-66
2021/07/17 04:44:13;;;;;;;11.30;3.05;;;19.70;89.50;;;;;;5022843;28;20026;-66
2021/07/17 04:46:38;;;;;;;9.68;2.63;;;19.70;89.50;;;;;;5012334;28;20028;-66
2021/07/17 04:49:07;;;;;;;14.20;3.58;;;19.70;89.60;;;;;;5015470;28;20505;-70
2021/07/17 04:51:33;;;;;;;15.73;2.75;;;19.70;89.60;;;;;;5015032;28;20512;-70
2021/07/17 04:53:59;;;;;;;10.45;2.25;;;19.70;89.60;;;;;;5013220;28;20080;-70
2021/07/17 04:56:25;;;;;;;10.30;3.10;;;19.70;89.60;;;;;;5015618;28;20382;-67
2021/07/17 04:58:51;;;;;;;17.13;3.30;;;19.70;89.70;;;;;;5013188;28;20030;-67
2021/07/17 05:01:18;;;;;;;14.10;3.05;;;19.70;89.60;;;;;;5012749;28;20018;-69
2021/07/17 05:03:43;;;;;;;9.25;2.78;;;19.70;89.70;;;;;;5012827;28;20030;-69
2021/07/17 05:06:09;;;;;;;13.93;2.60;;;19.70;89.80;;;;;;5014911;28;20381;-69
2021/07/17 05:08:35;;;;;;;12.63;2.80;;;19.70;89.90;;;;;;5015495;28;20025;-68
2021/07/17 05:11:01;;;;;;;11.98;2.90;;;19.70;89.90;;;;;;5017114;28;20026;-68
2021/07/17 05:13:27;;;;;;;15.10;2.58;;;19.70;90.00;;;;;;5016873;28;20030;-69
2021/07/17 05:15:52;;;;;;;10.70;2.45;;;19.70;90.10;;;;;;5015426;28;20025;-69
2021/07/17 05:18:18;;;;;;;9.10;2.15;;;19.70;90.00;;;;;;5012757;28;20192;-68
2021/07/17 05:20:44;;;;;;;13.45;2.45;;;19.80;90.00;;;;;;5016987;28;20083;-68
2021/07/17 05:23:16;;;;;;;12.70;2.72;;;19.80;90.00;;;;;;5012713;28;20030;-69
2021/07/17 05:25:44;;;;;;;8.15;2.20;;;19.80;90.20;;;;;;5016405;28;20026;-69
2021/07/17 05:28:10;;;;;;;12.95;2.53;;;19.80;90.20;;;;;;5012629;28;20030;-70
2021/07/17 05:30:38;;;;;;;15.98;2.78;;;19.80;90.20;;;;;;5015387;28;20049;-75
2021/07/17 05:33:04;;;;;;;9.98;2.28;;;19.80;90.30;;;;;;5012855;28;20036;-71
2021/07/17 05:35:30;;;;;;;8.85;2.33;;;19.90;90.60;;;;;;5016353;28;20037;-72
2021/07/17 05:37:59;;;;;;;14.45;2.33;;;19.90;90.40;;;;;;5016146;28;20022;-74
2021/07/17 05:40:25;;;;;;;10.23;2.47;;;20.00;90.30;;;;;;5015921;28;20029;-74
2021/07/17 05:42:51;;;;;;;16.83;3.30;;;20.00;90.10;;;;;;5014185;28;20048;-74
2021/07/17 05:45:17;;;;;;;12.43;2.75;;;19.90;90.10;;;;;;5014293;28;20385;-75
2021/07/17 05:47:43;;;;;;;18.25;3.28;;;20.00;90.00;;;;;;5011592;28;20025;-74
2021/07/17 05:50:09;;;;;;;10.23;2.47;;;20.00;89.70;;;;;;5012296;28;20038;-75
2021/07/17 05:52:35;;;;;;;12.73;3.20;;;20.10;89.90;;;;;;5019433;28;20460;-75
2021/07/17 05:55:01;;;;;;;8.70;2.50;;;20.10;90.10;;;;;;5015030;28;20062;-74
2021/07/17 05:57:27;;;;;;;20.83;2.97;;;20.20;89.50;;;;;;5010663;28;20444;-73
2021/07/17 05:59:52;;;;;;;14.00;3.00;;;20.10;89.30;;;;;;5011679;28;20025;-72
2021/07/17 06:02:18;;;;;;;11.23;2.80;;;20.20;89.00;;;;;;5012940;28;20117;-73
2021/07/17 06:04:47;;;;;;;10.93;2.40;;;20.20;89.00;;;;;;5020586;28;20393;-73
2021/07/17 06:07:16;;;;;;;10.38;2.60;;;20.30;89.00;;;;;;5016822;28;20025;-73
2021/07/17 06:09:43;;;;;;;15.82;3.33;;;20.20;88.90;;;;;;5020780;28;20065;-71
2021/07/17 06:12:09;;;;;;;9.05;2.75;;;20.20;89.00;;;;;;5020264;28;20030;-67
2021/07/17 06:14:39;;;;;;;5.85;1.77;;;20.30;89.10;;;;;;5019791;28;20030;-68
2021/07/17 06:17:06;;;;;;;10.20;2.78;;;20.30;88.50;;;;;;5019959;28;20046;-68
2021/07/17 06:19:32;;;;;;;19.05;4.03;;;20.30;88.80;;;;;;5019775;28;20401;-68
2021/07/17 06:21:57;;;;;;;17.50;3.25;;;20.40;88.90;;;;;;5014168;28;20029;-68
2021/07/17 06:24:26;;;;;;;9.93;2.78;;;20.40;88.90;;;;;;5010686;28;20022;-68
2021/07/17 06:26:51;;;;;;;11.65;2.72;;;20.40;88.80;;;;;;5011933;28;20036;-68
2021/07/17 06:29:17;;;;;;;13.75;2.63;;;20.50;89.10;;;;;;5013490;28;20429;-68
2021/07/17 06:31:42;;;;;;;14.95;2.92;;;20.50;88.60;;;;;;5016996;28;20029;-68
2021/07/17 06:34:09;;;;;;;8.30;2.55;;;20.50;88.40;;;;;;5022908;28;20022;-70
2021/07/17 06:36:34;;;;;;;11.30;2.38;;;20.50;88.40;;;;;;5022118;28;20030;-70
2021/07/17 06:39:00;;;;;;;7.43;2.10;;;20.60;88.30;;;;;;5023077;28;20469;-70
2021/07/17 06:41:26;;;;;;;15.80;2.85;;;20.60;88.00;;;;;;5025014;28;20075;-68
2021/07/17 06:43:51;;;;;;;11.48;2.72;;;20.60;88.00;;;;;;5029401;28;20072;-68
2021/07/17 06:46:17;;;;;;;15.07;2.55;;;20.60;88.10;;;;;;5032082;28;20040;-69
2021/07/17 06:48:42;;;;;;;15.07;2.97;;;20.60;88.00;;;;;;5016986;28;20045;-68
2021/07/17 06:51:08;;;;;;;12.98;2.75;;;20.60;88.00;;;;;;5030780;28;20064;-68
2021/07/17 06:53:43;;;;;;;7.72;2.25;;;20.70;87.90;;;;;;5035908;28;20112;-68
2021/07/17 06:56:08;;;;;;;11.73;3.08;;;20.70;88.00;;;;;;5022845;28;20065;-71
2021/07/17 06:58:34;;;;;;;19.67;2.40;;;20.70;87.90;;;;;;5020722;28;20152;-69
2021/07/17 07:01:00;;;;;;;9.38;3.30;;;20.70;87.90;;;;;;5014933;28;20533;-73
2021/07/17 07:03:26;;;;;;;11.80;3.00;;;20.80;88.40;;;;;;5026791;28;20041;-71
2021/07/17 07:05:52;;;;;;;10.70;1.88;;;20.70;87.70;;;;;;5029811;28;20031;-71
2021/07/17 07:08:18;;;;;;;8.43;2.55;;;20.80;87.50;;;;;;5033237;28;20040;-70
2021/07/17 07:10:46;;;;;;;13.85;2.50;;;20.80;87.50;;;;;;5027415;28;20445;-69
2021/07/17 07:13:13;;;;;;;10.32;3.13;;;20.80;87.60;;;;;;5029889;28;20091;-69
2021/07/17 07:15:39;;;;;;;7.80;2.00;;;20.80;87.80;;;;;;5027472;28;20025;-68
2021/07/17 07:18:06;;;;;;;7.00;1.90;;;20.90;87.70;;;;;;5014133;28;20087;-69
2021/07/17 07:20:35;;;;;;;5.10;1.73;;;20.90;87.60;;;;;;5026026;28;20040;-69
2021/07/17 07:23:02;;;;;;;13.60;2.47;;;20.90;87.40;;;;;;5024060;28;20060;-69
2021/07/17 07:25:28;;;;;;;12.52;2.42;;;21.00;87.50;;;;;;5024582;28;20034;-69
2021/07/17 07:27:54;;;;;;;12.40;2.30;;;21.00;87.60;;;;;;5028110;28;20026;-69
2021/07/17 07:30:19;;;;;;;11.40;2.50;;;21.10;87.30;;;;;;5024587;28;20111;-70
2021/07/17 07:32:47;;;;;;;10.77;2.53;;;21.10;87.10;;;;;;5019974;28;20050;-70
2021/07/17 07:35:13;;;;;;;9.60;2.65;;;21.20;86.90;;;;;;5029614;28;20538;-68
2021/07/17 07:37:39;;;;;;;4.22;1.70;;;21.20;86.90;;;;;;5027263;28;20113;-69
2021/07/17 07:40:05;;;;;;;8.90;1.83;;;21.20;86.60;;;;;;5016724;28;20061;-74
2021/07/17 07:42:31;;;;;;;5.80;2.08;;;21.30;86.60;;;;;;5022651;28;20040;-72
2021/07/17 07:44:56;;;;;;;8.20;2.22;;;21.30;86.80;;;;;;5017200;28;20460;-71
2021/07/17 07:47:23;;;;;;;11.38;2.85;;;21.30;86.80;;;;;;5025582;28;20018;-75
2021/07/17 07:49:52;;;;;;;14.57;2.85;;;21.30;86.70;;;;;;5025720;28;20041;-73
2021/07/17 07:52:18;;;;;;;5.18;1.90;;;21.40;86.60;;;;;;5041092;28;20030;-73
2021/07/17 07:54:50;;;;;;;13.60;3.08;;;21.40;86.40;;;;;;5015486;28;20555;-71
2021/07/17 07:57:16;;;;;;;8.38;2.30;;;21.40;86.20;;;;;;5028362;28;20486;-71
2021/07/17 07:59:41;;;;;;;10.50;2.22;;;21.50;86.30;;;;;;5032346;28;20021;-70
2021/07/17 08:02:10;;;;;;;6.40;2.25;;;21.40;86.00;;;;;;5017552;28;20045;-70
2021/07/17 08:04:36;;;;;;;6.82;2.10;;;21.50;86.20;;;;;;5025483;28;20030;-75
2021/07/17 08:07:02;;;;;;;7.68;2.38;;;21.50;86.30;;;;;;5014528;28;20088;-75
2021/07/17 08:09:31;;;;;;;11.02;2.20;;;21.60;86.40;;;;;;5015753;28;20033;-72
2021/07/17 08:11:57;;;;;;;10.30;1.90;;;21.60;86.20;;;;;;5015721;28;20079;-72
2021/07/17 08:14:22;;;;;;;7.03;2.00;;;21.70;86.30;;;;;;5018777;28;20030;-71
2021/07/17 08:16:48;;;;;;;14.68;2.70;;;21.70;86.50;;;;;;5019359;28;20030;-72
2021/07/17 08:19:15;;;;;;;6.25;2.10;;;21.70;86.40;;;;;;5015684;28;20044;-71
2021/07/17 08:21:41;;;;;;;13.15;2.40;;;21.80;86.70;;;;;;5020098;28;20068;-72
2021/07/17 08:24:08;;;;;;;11.05;2.50;;;21.80;86.50;;;;;;5020922;28;20060;-72
2021/07/17 08:26:34;;;;;;;12.00;2.58;;;21.90;86.70;;;;;;5025807;28;20043;-72
2021/07/17 08:29:00;;;;;;;10.40;2.53;;;21.90;86.10;;;;;;5020978;28;20067;-72
2021/07/17 08:31:26;;;;;;;11.43;2.70;;;22.00;86.10;;;;;;5024957;28;20025;-72
2021/07/17 08:33:52;;;;;;;8.38;2.08;;;22.00;85.70;;;;;;5016583;28;20466;-72
2021/07/17 08:36:17;;;;;;;14.65;2.08;;;22.10;85.80;;;;;;5017795;28;20034;-72
2021/07/17 08:38:44;;;;;;;12.32;1.98;;;22.10;86.10;;;;;;5022719;28;20108;-72
2021/07/17 08:41:10;;;;;;;7.38;1.90;;;22.20;85.50;;;;;;5014812;28;20029;-75
2021/07/17 08:43:36;;;;;;;6.68;1.70;;;22.10;85.20;;;;;;5027256;28;20105;-69
2021/07/17 08:46:02;;;;;;;5.75;1.70;;;22.20;84.90;;;;;;5029046;28;20044;-69
2021/07/17 08:48:30;;;;;;;8.88;1.88;;;22.20;85.00;;;;;;5027443;28;20068;-74
2021/07/17 08:50:58;;;;;;;5.20;1.75;;;22.20;85.20;;;;;;5027407;28;20036;-70
2021/07/17 08:53:24;;;;;;;14.45;2.40;;;22.20;85.00;;;;;;5020673;28;20044;-70
2021/07/17 08:55:50;;;;;;;11.77;2.20;;;22.20;85.00;;;;;;5023164;28;20058;-71
2021/07/17 08:58:16;;;;;;;7.75;1.40;;;22.30;85.30;;;;;;5021166;28;20061;-68
2021/07/17 09:00:45;;;;;;;5.78;1.65;;;22.30;85.80;;;;;;5019378;28;20559;-74
2021/07/17 09:03:14;;;;;;;7.78;2.35;;;22.30;85.50;;;;;;5024793;28;20064;-75
2021/07/17 09:05:42;;;;;;;11.88;2.78;;;22.40;85.00;;;;;;5021006;28;20049;-75
2021/07/17 09:08:16;;;;;;;9.07;2.17;;;22.40;84.90;;;;;;5021815;28;20069;-73
2021/07/17 09:10:44;;;;;;;8.73;2.45;;;22.50;85.20;;;;;;5015939;28;20045;-76
2021/07/17 09:13:24;;;;;;;11.60;2.30;;;22.50;84.60;;;;;;5020801;28;20112;-80
2021/07/17 09:16:06;;;;;;;7.05;2.28;;;22.50;84.50;;;;;;5018500;28;20040;-74
2021/07/17 09:18:58;;;;;;;7.93;2.08;;;22.60;85.00;;;;;;5017976;28;20489;-84
2021/07/17 09:21:27;;;;;;;8.02;2.30;;;22.50;85.00;;;;;;5020139;28;20037;-76
2021/07/17 09:23:55;;;;;;;10.18;2.88;;;22.60;85.70;;;;;;5022192;28;20497;-77
2021/07/17 09:26:26;;;;;;;7.32;1.75;;;22.60;85.50;;;;;;5024401;28;20091;-77
2021/07/17 09:29:09;;;;;;;8.60;2.20;;;22.70;85.30;;;;;;5022259;28;20029;-76
2021/07/17 09:31:36;;;;;;;7.82;2.55;;;22.70;85.10;;;;;;5017644;28;20143;-73
2021/07/17 09:34:07;;;;;;;15.93;2.70;;;22.70;85.20;;;;;;5012766;28;20038;-73
2021/07/17 09:36:34;;;;;;;5.40;1.75;;;22.80;85.40;;;;;;5015403;28;20030;-72
2021/07/17 09:39:00;;;;;;;6.90;1.83;;;22.90;85.20;;;;;;5015239;28;20054;-73
2021/07/17 09:41:26;;;;;;;10.35;2.08;;;22.90;85.40;;;;;;5016222;28;20041;-73
2021/07/17 09:44:03;;;;;;;3.97;0.98;;;22.90;84.90;;;;;;5015167;28;20029;-72
2021/07/17 09:46:30;;;;;;;4.93;1.33;;;22.90;84.70;;;;;;5014657;28;20110;-72
2021/07/17 09:49:00;;;;;;;4.72;1.20;;;23.00;84.30;;;;;;5012545;28;20406;-76
2021/07/17 09:51:28;;;;;;;6.20;1.48;;;23.00;84.00;;;;;;5027364;28;20393;-73
2021/07/17 09:53:56;;;;;;;5.78;2.35;;;22.90;83.90;;;;;;5019051;28;20105;-77
2021/07/17 09:56:24;;;;;;;5.40;1.23;;;22.90;84.00;;;;;;5026297;28;20029;-74
2021/07/17 09:58:52;;;;;;;5.40;1.70;;;23.00;84.40;;;;;;5017609;28;20030;-75
2021/07/17 10:01:23;;;;;;;10.00;1.48;;;23.00;83.90;;;;;;5020215;28;20041;-74
2021/07/17 10:04:11;;;;;;;8.75;1.73;;;23.00;84.50;;;;;;5024625;28;20508;-74
2021/07/17 10:06:45;;;;;;;3.67;1.48;;;23.00;83.90;;;;;;5022609;28;20079;-74
2021/07/17 10:09:14;;;;;;;5.20;1.60;;;23.10;84.60;;;;;;5014695;28;20601;-75
2021/07/17 10:11:42;;;;;;;7.03;2.00;;;23.10;84.10;;;;;;5022730;28;20087;-75
2021/07/17 10:14:31;;;;;;;6.68;1.92;;;23.10;83.70;;;;;;5016525;28;20030;-73
2021/07/17 10:17:00;;;;;;;4.40;1.70;;;23.10;83.90;;;;;;5021129;28;20045;-73
2021/07/17 10:19:27;;;;;;;5.38;2.28;;;23.20;84.10;;;;;;5014269;28;20030;-72
2021/07/17 10:21:54;;;;;;;3.67;1.40;;;23.20;83.50;;;;;;5015243;28;20101;-71
2021/07/17 10:24:21;;;;;;;3.75;1.38;;;23.20;83.60;;;;;;5022244;28;20079;-72
2021/07/17 10:26:49;;;;;;;1.80;1.40;;;23.20;83.90;;;;;;5027397;28;20041;-72
2021/07/17 10:29:18;;;;;;;4.85;1.40;;;23.30;84.20;;;;;;5022741;28;20046;-71
2021/07/17 10:31:46;;;;;;;7.40;1.85;;;23.30;83.50;;;;;;5025916;28;20044;-72
2021/07/17 10:34:12;;;;;;;5.97;1.92;;;23.30;83.10;;;;;;5028729;28;20040;-72
2021/07/17 10:37:02;;;;;;;4.68;1.58;;;23.30;83.40;;;;;;5028335;28;20044;-72
2021/07/17 10:39:34;;;;;;;3.25;1.52;;;23.40;83.40;;;;;;5023801;28;20026;-72
2021/07/17 10:42:10;;;;;;;10.38;1.80;;;23.40;83.10;;;;;;5027304;28;20029;-72
2021/07/17 10:44:47;;;;;;;4.07;1.50;;;23.40;82.50;;;;;;5025549;28;20037;-73
2021/07/17 10:47:13;;;;;;;4.72;1.42;;;23.50;82.10;;;;;;5023864;28;20057;-72
2021/07/17 10:49:52;;;;;;;3.53;1.40;;;23.40;82.50;;;;;;5025817;28;20118;-72
2021/07/17 10:52:40;;;;;;;5.93;1.30;;;23.40;82.80;;;;;;5027744;28;20757;-74
2021/07/17 10:55:27;;;;;;;3.25;1.23;;;23.50;82.30;;;;;;5024652;28;20493;-71
2021/07/17 10:57:54;;;;;;;6.43;1.35;;;23.60;82.30;;;;;;5024304;28;20044;-72
2021/07/17 11:00:42;;;;;;;7.28;1.30;;;23.60;82.30;;;;;;5023128;28;20022;-73
2021/07/17 11:03:22;;;;;;;6.20;1.60;;;23.60;82.20;;;;;;5021274;28;20021;-71
2021/07/17 11:05:49;;;;;;;7.35;1.60;;;23.60;82.50;;;;;;5022194;28;20048;-71
2021/07/17 11:08:34;;;;;;;7.47;1.60;;;23.60;82.70;;;;;;5023416;28;20033;-71
2021/07/17 11:11:21;;;;;;;4.60;1.70;;;23.70;82.90;;;;;;5023262;28;20037;-71
2021/07/17 11:13:49;;;;;;;7.05;1.33;;;23.70;82.40;;;;;;5024278;28;20052;-71
2021/07/17 11:16:41;;;;;;;5.47;1.58;;;23.70;81.90;;;;;;5025920;28;20496;-71
2021/07/17 11:19:26;;;;;;;8.50;1.80;;;23.80;82.10;;;;;;5023068;28;20030;-73
2021/07/17 11:21:52;;;;;;;9.38;1.85;;;23.80;82.80;;;;;;5025835;28;20427;-71
2021/07/17 11:24:22;;;;;;;8.32;1.63;;;23.80;81.80;;;;;;5020424;28;20071;-71
2021/07/17 11:27:13;;;;;;;5.57;1.55;;;23.80;81.70;;;;;;5021838;28;20034;-71
2021/07/17 11:29:40;;;;;;;5.18;1.52;;;23.90;81.90;;;;;;5022478;28;20184;-71
2021/07/17 11:32:08;;;;;;;3.88;1.05;;;23.90;81.80;;;;;;5026260;28;20028;-71
2021/07/17 11:34:35;;;;;;;3.10;1.50;;;23.90;82.00;;;;;;5024032;28;20034;-71
2021/07/17 11:37:06;;;;;;;5.25;1.30;;;23.90;81.40;;;;;;5028718;28;20041;-70
2021/07/17 11:39:35;;;;;;;6.15;1.30;;;24.00;81.40;;;;;;5024370;28;20849;-70
2021/07/17 11:42:04;;;;;;;3.60;1.38;;;24.00;81.00;;;;;;5024455;28;20388;-70
2021/07/17 11:44:36;;;;;;;6.00;1.60;;;24.00;81.00;;;;;;5031481;28;20057;-70
2021/07/17 11:47:14;;;;;;;3.97;1.50;;;24.00;81.10;;;;;;5030358;28;20444;-70
2021/07/17 11:49:44;;;;;;;4.85;1.40;;;24.10;80.80;;;;;;5034753;28;20041;-70
2021/07/17 11:52:13;;;;;;;4.13;1.35;;;24.10;81.00;;;;;;5023666;28;20026;-70
2021/07/17 11:54:50;;;;;;;6.55;1.35;;;24.20;80.50;;;;;;5028789;28;20037;-70
2021/07/17 11:57:21;;;;;;;3.20;1.45;;;24.20;80.40;;;;;;5024359;28;20028;-71
2021/07/17 12:00:10;;;;;;;5.57;1.42;;;24.30;80.00;;;;;;5027956;28;20042;-71
2021/07/17 12:02:38;;;;;;;5.93;1.52;;;24.30;80.70;;;;;;5028737;28;20044;-70
2021/07/17 12:05:14;;;;;;;3.60;1.30;;;24.30;80.10;;;;;;5028319;28;20025;-70
2021/07/17 12:07:41;;;;;;;4.57;1.10;;;24.30;79.80;;;;;;5025016;28;20549;-70
2021/07/17 12:10:28;;;;;;;3.53;1.20;;;24.30;80.40;;;;;;5023099;28;20170;-70
2021/07/17 12:12:56;;;;;;;2.63;1.23;;;24.40;80.60;;;;;;5021629;28;20095;-70
2021/07/17 12:15:35;;;;;;;1.95;0.68;;;24.40;79.60;;;;;;5024009;28;20527;-70
2021/07/17 12:18:12;;;;;;;5.50;2.00;;;24.40;80.40;;;;;;5022292;28;20775;-70
2021/07/17 12:20:47;;;;;;;3.80;1.35;;;24.40;79.50;;;;;;5025541;28;20033;-70
2021/07/17 12:23:32;;;;;;;5.40;1.30;;;24.40;78.90;;;;;;5023397;28;20069;-70
2021/07/17 12:26:02;;;;;;;3.85;1.52;;;24.40;79.80;;;;;;5018989;28;20026;-70
2021/07/17 12:28:36;;;;;;;2.53;1.23;;;24.40;79.10;;;;;;5021398;28;20118;-70
2021/07/17 12:31:07;;;;;;;4.55;1.13;;;24.50;79.30;;;;;;5023005;28;20548;-70
2021/07/17 12:33:35;;;;;;;2.80;1.33;;;24.50;78.90;;;;;;5018328;28;20042;-70
2021/07/17 12:36:14;;;;;;;5.43;1.63;;;24.50;79.20;;;;;;5033003;28;20073;-71
2021/07/17 12:38:48;;;;;;;8.57;1.55;;;24.60;79.40;;;;;;5031609;28;20022;-71
2021/07/17 12:41:24;;;;;;;3.05;1.27;;;24.60;79.40;;;;;;5022133;28;20101;-72
2021/07/17 12:43:55;;;;;;;3.55;1.35;;;24.60;78.40;;;;;;5031086;28;20036;-71
2021/07/17 12:46:23;;;;;;;7.47;1.30;;;24.70;78.70;;;;;;5028394;28;20136;-70